Terminal Aerodrome Forecast
Issued by NWS Wichita, KS

Home | Current Version | Previous Version | Text Only | Print | Product List | Glossary Off
Versions: 1 2 3 4 5 6 7 8 9 10 11 12 13 14 15 16 17

000
FTUS43 KICT 152100 AAB
TAFICT
TAF AMD
KICT 152138Z 1522/1618 01014KT P6SM SCT012 BKN035
      TEMPO 1522/1524 BKN012
     FM160000 04012KT P6SM VCSH OVC025
     FM160600 08010KT P6SM OVC015=

USA.gov is the U.S. government's official web portal to all federal, state and local government web resources and services.